Lejre, Denmark
Current Conditions -  °F | °C
As of 10:20 PM on Saturday 20 Dec 2014 (Local Time) from EKRK Reporting Station
Clear Clear  
Wind Chill: 30°   Ceiling: Unl
Heat Index: 39°   Visibility: 6mi
Dew Point: 36°   Wind: 16mph
Humidity: 87%   Direction: 300°WNW
Pressure: 29.71"   Gusts: NA
Location:  55.6°N, 11.97°E
Report Text: EKRK 202120Z AUTO 30014KT 9999NDV NCD 04/02 Q1006
Loading
Personal Weather Stations






























Interactive Weather Map New forecast layout! Learn more

10-Day Weather Forecast

Advertisements
Track Severe Weather on mobile